createdAt,value
2023-09-09T00:00:08.563Z,58.40
2023-09-09T00:02:13.833Z,58.30
2023-09-09T00:04:15.600Z,58.40
2023-09-09T00:06:17.346Z,58.30
2023-09-09T00:08:22.499Z,58.40
2023-09-09T00:10:24.273Z,58.30
2023-09-09T00:12:25.979Z,58.60
2023-09-09T00:14:29.208Z,58.40
2023-09-09T00:16:35.357Z,58.50
2023-09-09T00:18:37.098Z,59.10
2023-09-09T00:20:41.916Z,58.30
2023-09-09T00:22:43.702Z,58.60
2023-09-09T00:24:45.402Z,58.70
2023-09-09T00:26:47.086Z,58.60
2023-09-09T00:28:48.828Z,58.60
2023-09-09T00:30:50.830Z,58.60
2023-09-09T00:32:52.692Z,58.40
2023-09-09T00:34:54.508Z,58.40
2023-09-09T00:36:56.285Z,58.80
2023-09-09T00:38:58.150Z,58.70
2023-09-09T00:41:12.961Z,58.80
2023-09-09T00:43:14.709Z,58.90
2023-09-09T00:45:16.823Z,59.00
2023-09-09T00:47:19.020Z,58.70
2023-09-09T00:49:21.620Z,58.80
2023-09-09T00:51:24.327Z,58.60
2023-09-09T00:53:26.813Z,58.50
2023-09-09T00:55:28.558Z,58.50
2023-09-09T00:57:30.255Z,58.90
2023-09-09T00:59:32.610Z,58.80
2023-09-09T01:01:34.995Z,59.10
2023-09-09T01:03:37.304Z,59.00
2023-09-09T01:05:39.697Z,58.90
2023-09-09T01:07:45.447Z,59.10
2023-09-09T01:09:47.140Z,58.80
2023-09-09T01:11:48.896Z,58.80
2023-09-09T01:13:50.648Z,59.00
2023-09-09T01:15:53.350Z,58.90
2023-09-09T01:17:55.180Z,58.80
2023-09-09T01:19:59.443Z,58.80
2023-09-09T01:22:04.474Z,59.30
2023-09-09T01:24:06.521Z,59.40
2023-09-09T01:26:08.318Z,59.20
2023-09-09T01:28:10.496Z,59.20
2023-09-09T01:30:13.037Z,59.20
2023-09-09T01:32:14.938Z,59.20
2023-09-09T01:34:16.664Z,59.40
2023-09-09T01:36:18.386Z,59.20
2023-09-09T01:38:20.077Z,59.10
2023-09-09T01:40:21.804Z,59.30
2023-09-09T01:42:23.781Z,59.40
2023-09-09T01:44:25.539Z,59.10
2023-09-09T01:46:27.369Z,59.20
2023-09-09T01:48:29.171Z,59.10
2023-09-09T01:50:30.859Z,59.30
2023-09-09T01:52:32.588Z,59.50
2023-09-09T01:54:34.408Z,59.60
2023-09-09T01:56:36.119Z,59.40
2023-09-09T01:58:37.807Z,59.30
2023-09-09T02:00:39.476Z,59.60
2023-09-09T02:02:41.434Z,59.60
2023-09-09T02:04:43.943Z,59.70
2023-09-09T02:06:47.616Z,59.60
2023-09-09T02:08:49.382Z,59.50
2023-09-09T02:10:51.627Z,59.70
2023-09-09T02:12:53.304Z,59.70
2023-09-09T02:14:55.155Z,59.80
2023-09-09T02:16:56.859Z,59.60
2023-09-09T02:18:58.885Z,59.70
2023-09-09T02:21:00.600Z,59.80
2023-09-09T02:23:02.334Z,59.80
2023-09-09T02:25:04.789Z,59.90
2023-09-09T02:27:06.506Z,60.00
2023-09-09T02:29:08.194Z,59.80
2023-09-09T02:31:09.971Z,60.20
2023-09-09T02:33:11.921Z,60.20
2023-09-09T02:35:14.693Z,60.20
2023-09-09T02:37:18.204Z,60.00
2023-09-09T02:39:19.953Z,59.90
2023-09-09T02:41:21.697Z,60.30
2023-09-09T02:43:23.454Z,60.00
2023-09-09T02:45:25.571Z,60.10
2023-09-09T02:47:27.251Z,60.00
2023-09-09T02:49:28.962Z,60.30
2023-09-09T02:51:30.643Z,60.20
2023-09-09T02:53:32.345Z,60.30
2023-09-09T02:55:34.497Z,60.00
2023-09-09T02:57:36.294Z,60.20
2023-09-09T02:59:38.497Z,60.40
2023-09-09T03:01:43.114Z,60.30
2023-09-09T03:03:44.881Z,60.40
2023-09-09T03:05:46.770Z,60.50
2023-09-09T03:07:49.253Z,60.40
2023-09-09T03:09:51.000Z,60.60
2023-09-09T03:11:54.872Z,60.50
2023-09-09T03:13:56.606Z,60.70
2023-09-09T03:15:58.394Z,60.70
2023-09-09T03:18:00.571Z,60.80
2023-09-09T03:20:06.185Z,60.70
2023-09-09T03:22:07.893Z,60.80
2023-09-09T03:24:09.584Z,60.70
2023-09-09T03:26:11.368Z,60.70
2023-09-09T03:28:13.046Z,60.90
2023-09-09T03:30:14.799Z,61.00
2023-09-09T03:32:16.564Z,61.10
2023-09-09T03:34:18.292Z,61.10
2023-09-09T03:36:19.972Z,61.10
2023-09-09T03:38:21.805Z,61.00
2023-09-09T03:40:23.530Z,61.30
2023-09-09T03:42:25.317Z,61.30
2023-09-09T03:44:26.966Z,61.40
2023-09-09T03:46:28.702Z,61.10
2023-09-09T03:48:32.407Z,61.20
2023-09-09T03:50:34.321Z,62.20
2023-09-09T03:52:36.060Z,61.30
2023-09-09T03:54:37.854Z,61.20
2023-09-09T03:56:39.562Z,61.00
2023-09-09T03:58:41.851Z,61.30
2023-09-09T04:00:45.471Z,61.20
2023-09-09T04:02:47.341Z,61.30
2023-09-09T04:04:49.847Z,61.30
2023-09-09T04:06:51.806Z,61.40
2023-09-09T04:08:57.069Z,61.60
2023-09-09T04:10:59.240Z,61.60
2023-09-09T04:13:01.335Z,61.30
2023-09-09T04:15:03.156Z,61.20
2023-09-09T04:17:05.453Z,61.50
2023-09-09T04:19:07.721Z,61.40
2023-09-09T04:21:09.547Z,61.40
2023-09-09T04:23:11.327Z,61.60
2023-09-09T04:25:13.060Z,61.70
2023-09-09T04:27:14.808Z,61.80
2023-09-09T04:29:16.652Z,61.70
2023-09-09T04:31:18.365Z,61.40
2023-09-09T04:33:20.297Z,61.70
2023-09-09T04:35:22.925Z,61.40
2023-09-09T04:37:26.008Z,61.80
2023-09-09T04:39:27.790Z,61.80
2023-09-09T04:41:29.571Z,61.40
2023-09-09T04:43:31.365Z,61.90
2023-09-09T04:45:33.181Z,61.80
2023-09-09T04:47:35.842Z,61.90
2023-09-09T04:49:37.694Z,61.80
2023-09-09T04:51:39.440Z,61.80
2023-09-09T04:53:41.464Z,61.90
2023-09-09T04:55:43.683Z,62.20
2023-09-09T04:57:45.877Z,62.20
2023-09-09T04:59:48.580Z,62.30
2023-09-09T05:01:50.375Z,62.30
2023-09-09T05:03:52.099Z,62.00
2023-09-09T05:05:53.859Z,61.70
2023-09-09T05:07:55.534Z,62.00
2023-09-09T05:09:57.352Z,62.10
2023-09-09T05:11:59.040Z,62.40
2023-09-09T05:14:01.432Z,62.00
2023-09-09T05:16:03.840Z,62.20
2023-09-09T05:18:05.641Z,62.50
2023-09-09T05:20:07.742Z,62.10
2023-09-09T05:22:09.446Z,62.10
2023-09-09T05:24:11.199Z,62.30
2023-09-09T05:26:12.966Z,62.40
2023-09-09T05:28:14.753Z,62.80
2023-09-09T05:30:16.477Z,62.80
2023-09-09T05:32:18.834Z,62.60
2023-09-09T05:34:20.553Z,62.20
2023-09-09T05:36:22.466Z,62.60
2023-09-09T05:38:24.217Z,62.30
2023-09-09T05:40:26.026Z,62.40
2023-09-09T05:42:27.800Z,62.80
2023-09-09T05:44:29.764Z,62.90
2023-09-09T05:46:33.333Z,63.10
2023-09-09T05:48:35.173Z,63.10
2023-09-09T05:50:37.287Z,63.10
2023-09-09T05:52:39.104Z,63.30
2023-09-09T05:54:42.604Z,62.90
2023-09-09T05:56:44.441Z,62.70
2023-09-09T05:58:46.656Z,62.50
2023-09-09T06:00:48.353Z,62.60
2023-09-09T06:02:50.688Z,63.00
2023-09-09T06:04:52.559Z,63.20
2023-09-09T06:06:54.307Z,63.30
2023-09-09T06:08:56.043Z,63.00
2023-09-09T06:10:58.202Z,63.30
2023-09-09T06:13:08.076Z,63.50
2023-09-09T06:15:10.935Z,63.50
2023-09-09T06:17:12.685Z,63.10
2023-09-09T06:19:14.797Z,63.10
2023-09-09T06:21:16.691Z,63.40
2023-09-09T06:23:18.380Z,63.50
2023-09-09T06:25:20.914Z,63.50
2023-09-09T06:27:22.629Z,63.20
2023-09-09T06:29:24.739Z,63.00
2023-09-09T06:31:27.424Z,62.90
2023-09-09T06:33:29.195Z,63.00
2023-09-09T06:35:31.038Z,62.90
2023-09-09T06:37:32.946Z,63.00
2023-09-09T06:39:34.639Z,63.00
2023-09-09T06:41:36.323Z,63.00
2023-09-09T06:43:38.357Z,62.90
2023-09-09T06:45:40.734Z,63.70
2023-09-09T06:47:42.608Z,63.20
2023-09-09T06:49:44.353Z,63.00
2023-09-09T06:51:46.128Z,63.00
2023-09-09T06:53:49.646Z,62.80
2023-09-09T06:55:52.735Z,63.00
2023-09-09T06:57:54.486Z,62.90
2023-09-09T06:59:56.162Z,62.90
2023-09-09T07:01:57.837Z,63.10
2023-09-09T07:03:59.626Z,63.00
2023-09-09T07:06:01.627Z,63.00
2023-09-09T07:08:03.998Z,62.90
2023-09-09T07:10:06.093Z,63.00
2023-09-09T07:12:10.940Z,63.00
2023-09-09T07:14:12.644Z,63.00
2023-09-09T07:16:14.419Z,63.00
2023-09-09T07:18:16.288Z,63.00
2023-09-09T07:20:18.207Z,63.00
2023-09-09T07:22:19.893Z,62.90
2023-09-09T07:24:21.578Z,63.10
2023-09-09T07:26:23.459Z,63.10
2023-09-09T07:28:25.301Z,63.00
2023-09-09T07:30:27.807Z,63.10
2023-09-09T07:32:29.515Z,63.00
2023-09-09T07:34:31.348Z,63.10
2023-09-09T07:36:33.024Z,63.10
2023-09-09T07:38:34.733Z,63.00
2023-09-09T07:40:36.479Z,63.10
2023-09-09T07:42:38.207Z,63.20
2023-09-09T07:44:39.907Z,63.90
2023-09-09T07:46:42.097Z,63.00
2023-09-09T07:48:43.867Z,62.70
2023-09-09T07:50:55.768Z,63.00
2023-09-09T07:52:57.590Z,63.00
2023-09-09T07:55:00.861Z,63.10
2023-09-09T07:57:05.300Z,62.90
2023-09-09T07:59:07.105Z,63.00
2023-09-09T08:01:09.353Z,62.70
2023-09-09T08:03:15.017Z,62.70
2023-09-09T08:05:17.369Z,62.60
2023-09-09T08:07:19.140Z,62.70
2023-09-09T08:09:21.686Z,62.50
2023-09-09T08:11:23.369Z,62.70
2023-09-09T08:13:27.968Z,62.60
2023-09-09T08:15:40.267Z,62.50
2023-09-09T08:17:44.333Z,62.60
2023-09-09T08:19:46.108Z,62.50
2023-09-09T08:21:47.831Z,62.40
2023-09-09T08:23:49.517Z,62.50
2023-09-09T08:25:51.254Z,62.40
2023-09-09T08:27:53.041Z,62.40
2023-09-09T08:29:55.943Z,62.30
2023-09-09T08:31:57.673Z,62.40
2023-09-09T08:33:59.379Z,62.10
2023-09-09T08:36:01.739Z,62.10
2023-09-09T08:38:03.546Z,62.20
2023-09-09T08:40:06.060Z,62.10
2023-09-09T08:42:27.359Z,62.00
2023-09-09T08:44:38.669Z,62.00
2023-09-09T08:46:40.396Z,62.10
2023-09-09T08:48:43.361Z,62.20
2023-09-09T08:50:45.849Z,62.10
2023-09-09T08:52:48.603Z,62.20
2023-09-09T08:54:50.534Z,62.10
2023-09-09T08:56:52.908Z,62.00
2023-09-09T08:58:54.642Z,62.00
2023-09-09T09:00:56.814Z,62.00
2023-09-09T09:02:59.082Z,61.90
2023-09-09T09:05:01.028Z,61.90
2023-09-09T09:07:03.010Z,61.70
2023-09-09T09:09:04.739Z,61.80
2023-09-09T09:11:07.194Z,61.80
2023-09-09T09:13:08.877Z,61.80
2023-09-09T09:15:11.746Z,61.80
2023-09-09T09:17:15.349Z,61.70
2023-09-09T09:19:22.696Z,61.80
2023-09-09T09:21:24.400Z,61.90
2023-09-09T09:23:26.565Z,61.70
2023-09-09T09:25:28.755Z,61.70
2023-09-09T09:27:31.888Z,61.70
2023-09-09T09:29:40.906Z,61.60
2023-09-09T09:31:42.809Z,61.60
2023-09-09T09:33:46.740Z,61.60
2023-09-09T09:35:48.599Z,61.50
2023-09-09T09:37:54.536Z,61.50
2023-09-09T09:39:56.283Z,61.60
2023-09-09T09:41:59.526Z,61.60
2023-09-09T09:44:01.964Z,61.60
2023-09-09T09:46:16.060Z,61.40
2023-09-09T09:48:27.706Z,61.40
2023-09-09T09:50:31.707Z,61.40
2023-09-09T09:52:34.744Z,61.30
2023-09-09T09:54:39.649Z,61.40
2023-09-09T09:56:41.682Z,61.40
2023-09-09T09:58:47.332Z,61.40
2023-09-09T10:00:50.770Z,61.40
2023-09-09T10:03:01.973Z,61.40
2023-09-09T10:05:04.245Z,61.40
2023-09-09T10:07:06.453Z,61.40
2023-09-09T10:09:10.977Z,61.40
2023-09-09T10:11:15.048Z,61.40
2023-09-09T10:13:45.378Z,61.50
2023-09-09T10:15:50.510Z,61.40
2023-09-09T10:17:53.382Z,61.40
2023-09-09T10:19:59.944Z,61.30
2023-09-09T10:22:02.192Z,61.30
2023-09-09T10:24:04.760Z,61.40
2023-09-09T10:26:07.553Z,61.40
2023-09-09T10:28:10.142Z,61.30
2023-09-09T10:30:12.082Z,61.20
2023-09-09T10:32:16.001Z,61.20
2023-09-09T10:34:18.292Z,61.20
2023-09-09T10:36:20.149Z,61.20
2023-09-09T10:38:23.457Z,61.10
2023-09-09T10:40:26.434Z,61.10
2023-09-09T10:42:28.920Z,61.10
2023-09-09T10:44:30.852Z,61.10
2023-09-09T10:46:36.194Z,61.10
2023-09-09T10:48:37.979Z,61.10
2023-09-09T10:50:50.927Z,61.00
2023-09-09T10:53:12.652Z,60.90
2023-09-09T10:55:14.654Z,60.50
2023-09-09T10:57:16.537Z,60.60
2023-09-09T10:59:22.801Z,60.60
2023-09-09T11:01:25.514Z,60.50
2023-09-09T11:03:37.738Z,60.40
2023-09-09T11:05:59.098Z,60.40
2023-09-09T11:08:00.894Z,60.20
2023-09-09T11:10:03.768Z,60.20
2023-09-09T11:12:15.507Z,60.20
2023-09-09T11:14:19.678Z,60.10
2023-09-09T11:16:28.609Z,59.90
2023-09-09T11:18:30.488Z,59.80
2023-09-09T11:20:32.829Z,59.80
2023-09-09T11:22:34.954Z,59.60
2023-09-09T11:24:36.730Z,59.60
2023-09-09T11:26:39.722Z,59.00
2023-09-09T11:28:41.952Z,59.10
2023-09-09T11:30:43.978Z,59.10
2023-09-09T11:32:49.082Z,59.10
2023-09-09T11:34:52.371Z,59.00
2023-09-09T11:36:54.470Z,59.00
2023-09-09T11:38:56.880Z,58.70
2023-09-09T11:40:58.664Z,58.60
2023-09-09T11:43:00.372Z,58.60
2023-09-09T11:45:03.256Z,58.40
2023-09-09T11:47:07.972Z,58.70
2023-09-09T11:49:11.086Z,58.40
2023-09-09T11:51:12.855Z,58.10
2023-09-09T11:53:14.713Z,57.90
2023-09-09T11:55:17.149Z,57.60
2023-09-09T11:57:18.849Z,57.60
2023-09-09T11:59:20.742Z,57.40
2023-09-09T12:01:23.275Z,57.50
2023-09-09T12:03:25.082Z,57.30
2023-09-09T12:05:31.800Z,56.80
2023-09-09T12:07:35.330Z,56.70
2023-09-09T12:09:37.134Z,56.40
2023-09-09T12:11:40.381Z,56.20
2023-09-09T12:13:42.445Z,56.30
2023-09-09T12:15:53.082Z,56.70
2023-09-09T12:18:09.149Z,56.10
2023-09-09T12:20:11.093Z,56.10
2023-09-09T12:22:27.256Z,55.60
2023-09-09T12:24:28.952Z,55.30
2023-09-09T12:26:30.732Z,55.10
2023-09-09T12:28:32.450Z,55.30
2023-09-09T12:30:40.832Z,55.10
2023-09-09T12:32:42.617Z,55.20
2023-09-09T12:34:45.072Z,55.20
2023-09-09T12:36:49.063Z,54.90
2023-09-09T12:38:51.910Z,54.70
2023-09-09T12:40:55.089Z,53.50
2023-09-09T12:42:57.781Z,53.50
2023-09-09T12:44:59.506Z,53.60
2023-09-09T12:47:05.336Z,54.50
2023-09-09T12:49:08.179Z,53.50
2023-09-09T12:51:09.922Z,53.50
2023-09-09T12:53:11.713Z,53.70
2023-09-09T12:55:14.532Z,53.60
2023-09-09T12:57:16.248Z,53.80
2023-09-09T12:59:17.950Z,53.60
2023-09-09T13:01:19.701Z,53.50
2023-09-09T13:03:21.597Z,53.50
2023-09-09T13:05:23.423Z,52.90
2023-09-09T13:07:25.144Z,52.60
2023-09-09T13:09:26.887Z,52.80
2023-09-09T13:11:28.732Z,52.60
2023-09-09T13:13:30.649Z,52.90
2023-09-09T13:15:32.568Z,51.90
2023-09-09T13:17:34.692Z,52.20
2023-09-09T13:19:37.659Z,52.40
2023-09-09T13:21:41.569Z,52.60
2023-09-09T13:23:43.312Z,52.10
2023-09-09T13:25:45.058Z,51.70
2023-09-09T13:27:47.573Z,51.40
2023-09-09T13:29:49.319Z,51.30
2023-09-09T13:31:51.131Z,51.30
2023-09-09T13:33:53.319Z,49.60
2023-09-09T13:35:55.177Z,50.70
2023-09-09T13:37:56.984Z,51.10
2023-09-09T13:39:58.753Z,51.20
2023-09-09T13:42:00.581Z,51.30
2023-09-09T13:44:02.361Z,51.40
2023-09-09T13:46:04.102Z,51.10
2023-09-09T13:48:05.900Z,51.00
2023-09-09T13:50:08.326Z,50.60
2023-09-09T13:52:10.053Z,49.60
2023-09-09T13:54:12.134Z,50.60
2023-09-09T13:56:17.087Z,50.20
2023-09-09T13:58:18.885Z,50.40
2023-09-09T14:00:20.686Z,50.10
2023-09-09T14:02:22.532Z,49.80
2023-09-09T14:04:24.898Z,50.20
2023-09-09T14:06:28.126Z,50.40
2023-09-09T14:08:29.956Z,50.30
2023-09-09T14:10:33.519Z,49.20
2023-09-09T14:12:35.581Z,49.90
2023-09-09T14:14:37.372Z,50.10
2023-09-09T14:16:39.193Z,50.10
2023-09-09T14:18:41.926Z,49.50
2023-09-09T14:20:45.032Z,49.80
2023-09-09T14:22:48.134Z,49.70
2023-09-09T14:24:49.894Z,49.60
2023-09-09T14:26:51.712Z,49.30
2023-09-09T14:28:53.447Z,47.10
2023-09-09T14:30:55.215Z,48.00
2023-09-09T14:32:57.047Z,48.30
2023-09-09T14:34:58.889Z,47.20
2023-09-09T14:37:00.580Z,48.30
2023-09-09T14:39:02.506Z,48.80
2023-09-09T14:41:04.221Z,49.50
2023-09-09T14:43:05.980Z,49.20
2023-09-09T14:45:07.948Z,49.00
2023-09-09T14:47:09.689Z,48.90
2023-09-09T14:58:53.715Z,48.50
2023-09-09T15:00:55.403Z,48.60
2023-09-09T15:02:57.217Z,48.90
2023-09-09T15:04:58.985Z,48.90
2023-09-09T15:07:00.718Z,48.80
2023-09-09T15:09:02.526Z,48.60
2023-09-09T15:11:04.236Z,48.90
2023-09-09T15:13:06.023Z,48.60
2023-09-09T15:15:08.098Z,48.40
2023-09-09T15:17:10.073Z,48.80
2023-09-09T15:19:12.054Z,49.00
2023-09-09T15:21:13.972Z,48.50
2023-09-09T15:23:15.717Z,48.50
2023-09-09T15:25:17.392Z,48.50
2023-09-09T15:27:19.067Z,48.30
2023-09-09T15:29:20.760Z,48.30
2023-09-09T15:31:23.310Z,47.80
2023-09-09T15:33:25.139Z,48.40
2023-09-09T15:35:29.648Z,48.30
2023-09-09T15:37:31.565Z,48.20
2023-09-09T15:39:33.392Z,47.20
2023-09-09T15:41:35.128Z,48.00
2023-09-09T15:43:40.384Z,47.90
2023-09-09T15:45:43.724Z,48.00
2023-09-09T15:47:45.500Z,48.00
2023-09-09T15:49:47.307Z,47.80
2023-09-09T15:51:49.121Z,47.10
2023-09-09T15:53:50.943Z,46.70
2023-09-09T15:55:52.820Z,46.40
2023-09-09T15:57:54.515Z,46.20
2023-09-09T15:59:56.583Z,46.10
2023-09-09T16:01:58.610Z,46.20
2023-09-09T16:04:01.057Z,46.10
2023-09-09T16:06:04.885Z,46.10
2023-09-09T16:08:06.721Z,46.00
2023-09-09T16:10:08.838Z,46.10
2023-09-09T16:12:10.545Z,46.00
2023-09-09T16:14:12.506Z,46.10
2023-09-09T16:16:14.414Z,46.00
2023-09-09T16:18:16.248Z,46.00
2023-09-09T16:20:18.073Z,46.10
2023-09-09T16:22:19.843Z,46.30
2023-09-09T16:24:22.716Z,46.30
2023-09-09T16:26:24.441Z,46.50
2023-09-09T16:28:26.297Z,46.50
2023-09-09T16:30:28.065Z,46.50
2023-09-09T16:32:30.068Z,46.70
2023-09-09T16:34:31.967Z,46.80
2023-09-09T16:36:33.859Z,47.00
2023-09-09T16:38:36.871Z,47.20
2023-09-09T16:40:39.318Z,47.40
2023-09-09T16:42:41.078Z,47.60
2023-09-09T16:44:42.756Z,47.80
2023-09-09T16:46:44.562Z,47.90
2023-09-09T16:48:46.336Z,48.20
2023-09-09T16:50:48.436Z,48.30
2023-09-09T16:52:50.998Z,48.60
2023-09-09T16:54:52.782Z,48.80
2023-09-09T16:56:54.777Z,48.90
2023-09-09T16:58:56.681Z,49.10
2023-09-09T17:00:58.589Z,49.20
2023-09-09T17:03:00.492Z,49.30
2023-09-09T17:05:02.367Z,49.60
2023-09-09T17:07:04.285Z,49.60
2023-09-09T17:09:06.118Z,49.80
2023-09-09T17:11:07.872Z,49.90
2023-09-09T17:13:11.850Z,50.10
2023-09-09T17:15:13.518Z,50.20
2023-09-09T17:17:17.105Z,50.30
2023-09-09T17:19:22.240Z,50.40
2023-09-09T17:21:23.998Z,50.50
2023-09-09T17:23:48.746Z,50.60
2023-09-09T17:25:56.020Z,50.80
2023-09-09T17:27:58.348Z,50.80
2023-09-09T17:30:06.623Z,50.90
2023-09-09T17:34:39.446Z,51.10
2023-09-09T17:36:41.233Z,51.20
2023-09-09T17:38:50.387Z,51.20
2023-09-09T17:40:56.524Z,51.30
2023-09-09T17:43:06.811Z,51.40
2023-09-09T17:45:11.850Z,51.50
2023-09-09T17:47:21.553Z,51.50
2023-09-09T17:49:29.590Z,51.60
2023-09-09T17:51:38.742Z,52.30
2023-09-09T17:53:45.047Z,51.60
2023-09-09T17:56:06.475Z,51.80
2023-09-09T17:58:11.392Z,51.90
2023-09-09T18:00:14.965Z,51.90
2023-09-09T18:02:47.659Z,52.10
2023-09-09T18:04:53.910Z,52.00
2023-09-09T18:06:57.273Z,52.10
2023-09-09T18:09:05.080Z,52.10
2023-09-09T18:11:13.904Z,52.10
2023-09-09T18:13:16.570Z,52.20
2023-09-09T18:15:37.642Z,52.10
2023-09-09T18:17:45.540Z,52.30
2023-09-09T18:19:47.648Z,52.40
2023-09-09T18:21:58.283Z,52.30
2023-09-09T18:24:20.233Z,52.40
2023-09-09T18:26:26.080Z,52.50
2023-09-09T18:28:59.311Z,52.60
2023-09-09T18:31:11.445Z,52.60
2023-09-09T18:33:16.601Z,52.70
2023-09-09T18:35:30.917Z,52.70
2023-09-09T18:40:00.237Z,53.00
2023-09-09T18:42:09.305Z,53.10
2023-09-09T18:44:11.051Z,53.40
2023-09-09T18:46:24.387Z,53.20
2023-09-09T18:48:27.577Z,53.90
2023-09-09T18:50:29.317Z,53.50
2023-09-09T18:52:45.275Z,53.50
2023-09-09T18:54:47.173Z,54.10
2023-09-09T18:56:49.442Z,53.60
2023-09-09T18:58:52.193Z,53.80
2023-09-09T19:00:54.243Z,53.80
2023-09-09T19:02:57.023Z,53.80
2023-09-09T19:04:59.246Z,54.10
2023-09-09T19:07:02.510Z,54.00
2023-09-09T19:09:04.376Z,54.10
2023-09-09T19:11:31.869Z,54.00
2023-09-09T19:13:34.389Z,54.10
2023-09-09T19:15:36.207Z,54.20
2023-09-09T19:17:38.126Z,54.10
2023-09-09T19:19:40.055Z,54.30
2023-09-09T19:21:41.904Z,54.30
2023-09-09T19:23:43.684Z,54.40
2023-09-09T19:25:47.995Z,54.40
2023-09-09T19:27:49.829Z,54.50
2023-09-09T19:29:54.569Z,54.60
2023-09-09T19:31:57.728Z,54.50
2023-09-09T19:33:59.628Z,54.30
2023-09-09T19:36:08.639Z,54.50
2023-09-09T19:38:12.994Z,54.50
2023-09-09T19:40:16.319Z,54.60
2023-09-09T19:42:18.573Z,54.60
2023-09-09T19:44:20.370Z,54.80
2023-09-09T19:46:29.465Z,54.60
2023-09-09T19:48:34.206Z,54.90
2023-09-09T19:58:07.605Z,55.10
2023-09-09T20:00:16.632Z,55.20
2023-09-09T20:02:24.503Z,55.20
2023-09-09T20:04:38.788Z,55.30
2023-09-09T20:07:03.031Z,55.40
2023-09-09T20:09:06.126Z,55.40
2023-09-09T20:15:08.636Z,55.40
2023-09-09T20:17:16.492Z,55.50
2023-09-09T20:19:24.125Z,55.70
2023-09-09T20:21:36.826Z,55.70
2023-09-09T20:23:40.809Z,55.70
2023-09-09T20:25:42.671Z,55.70
2023-09-09T20:27:52.927Z,55.70
2023-09-09T20:29:57.416Z,55.70
2023-09-09T20:32:03.101Z,55.90
2023-09-09T20:34:12.118Z,56.00
2023-09-09T20:36:25.111Z,56.00
2023-09-09T20:38:31.168Z,55.90
2023-09-09T20:40:39.106Z,55.90
2023-09-09T20:42:55.458Z,56.10
2023-09-09T20:45:11.866Z,56.20
2023-09-09T20:47:16.162Z,56.10
2023-09-09T20:49:24.894Z,56.10
2023-09-09T20:51:33.358Z,56.20
2023-09-09T20:53:47.713Z,56.30
2023-09-09T20:55:54.818Z,56.10
2023-09-09T20:58:02.279Z,56.90
2023-09-09T21:00:17.967Z,56.10
2023-09-09T21:02:21.236Z,56.20
2023-09-09T21:04:39.863Z,56.10
2023-09-09T21:06:55.019Z,56.00
2023-09-09T21:09:02.381Z,56.10
2023-09-09T21:11:07.111Z,56.10
2023-09-09T21:13:11.466Z,56.00
2023-09-09T21:15:18.830Z,56.10
2023-09-09T21:17:20.667Z,56.10
2023-09-09T21:19:27.013Z,55.80
2023-09-09T21:21:28.810Z,56.10
2023-09-09T21:23:33.177Z,55.90
2023-09-09T21:25:37.538Z,56.00
2023-09-09T21:27:42.397Z,55.90
2023-09-09T21:30:01.236Z,55.90
2023-09-09T21:32:10.030Z,56.00
2023-09-09T21:34:13.026Z,56.00
2023-09-09T21:36:15.252Z,56.00
2023-09-09T21:38:17.416Z,56.00
2023-09-09T21:40:19.223Z,55.90
2023-09-09T21:42:21.055Z,56.20
2023-09-09T21:44:22.884Z,56.00
2023-09-09T21:46:24.775Z,55.90
2023-09-09T21:48:26.684Z,56.10
2023-09-09T21:50:28.459Z,56.20
2023-09-09T21:52:30.330Z,56.20
2023-09-09T21:54:32.098Z,56.30
2023-09-09T21:56:35.912Z,56.50
2023-09-09T21:58:38.034Z,56.50
2023-09-09T22:00:39.967Z,56.30
2023-09-09T22:02:41.765Z,56.50
2023-09-09T22:04:43.606Z,56.60
2023-09-09T22:06:45.394Z,56.50
2023-09-09T22:08:47.117Z,56.70
2023-09-09T22:10:50.056Z,56.80
2023-09-09T22:12:52.057Z,56.80
2023-09-09T22:14:53.856Z,56.80
2023-09-09T22:16:58.496Z,56.70
2023-09-09T22:19:03.351Z,56.70
2023-09-09T22:21:06.474Z,56.90
2023-09-09T22:23:08.552Z,56.90
2023-09-09T22:25:22.534Z,57.00
2023-09-09T22:27:24.256Z,57.00
2023-09-09T22:29:25.977Z,56.90
2023-09-09T22:31:28.683Z,57.10
2023-09-09T22:33:30.429Z,57.10
2023-09-09T22:35:32.215Z,57.40
2023-09-09T22:37:35.129Z,57.00
2023-09-09T22:39:37.227Z,57.10
2023-09-09T22:41:38.968Z,57.30
2023-09-09T22:43:40.762Z,57.40
2023-09-09T22:45:42.771Z,57.30
2023-09-09T22:47:44.649Z,57.40
2023-09-09T22:49:48.705Z,57.30
2023-09-09T22:51:50.635Z,57.20
2023-09-09T22:53:53.406Z,57.30
2023-09-09T22:55:55.184Z,57.40
2023-09-09T22:57:56.954Z,57.30
2023-09-09T22:59:58.697Z,57.30
2023-09-09T23:02:00.951Z,57.30
2023-09-09T23:04:02.892Z,57.50
2023-09-09T23:06:05.645Z,57.60
2023-09-09T23:08:09.197Z,57.70
2023-09-09T23:10:11.299Z,58.30
2023-09-09T23:12:13.096Z,57.50
2023-09-09T23:14:14.864Z,57.40
2023-09-09T23:16:16.722Z,57.60
2023-09-09T23:18:19.828Z,57.70
2023-09-09T23:20:22.752Z,57.60
2023-09-09T23:22:24.441Z,57.70
2023-09-09T23:24:26.117Z,57.70
2023-09-09T23:26:28.256Z,57.80
2023-09-09T23:28:30.139Z,57.70
2023-09-09T23:30:31.954Z,57.70
2023-09-09T23:32:33.953Z,57.80
2023-09-09T23:34:35.838Z,57.80
2023-09-09T23:36:37.608Z,57.80
2023-09-09T23:38:39.571Z,57.90
2023-09-09T23:40:41.726Z,57.90
2023-09-09T23:42:43.473Z,58.00
2023-09-09T23:44:45.162Z,57.90
2023-09-09T23:46:46.865Z,58.00
2023-09-09T23:48:48.626Z,58.10
2023-09-09T23:50:50.316Z,58.10
2023-09-09T23:52:52.814Z,58.00
2023-09-09T23:54:54.520Z,58.20
2023-09-09T23:56:56.203Z,58.00
2023-09-09T23:58:57.921Z,58.10
